Time;durP1;ratioP1;P1;durP2;ratioP2;P2;SDS_P1;SDS_P2;PMS_P1;PMS_P2;Temp;Humidity;BMP_temperature;BMP_pressure;BME280_temperature;BME280_humidity;BME280_pressure;Samples;Min_cycle;Max_cycle;Signal;HPM_P1;HPM_P2
2022/09/03 00:00:20;;;;;;;3.23;2.03;;;20.20;67.10;;;21.51;43.87;100158.53;4991801;28;20630;-67
2022/09/03 00:03:21;;;;;;;2.10;2.00;;;20.20;67.00;;;21.54;44.22;100152.84;4992638;28;20666;-69
2022/09/03 00:06:07;;;;;;;6.77;2.20;;;20.20;67.50;;;21.56;44.18;100153.47;4991743;28;20609;-67
2022/09/03 00:09:13;;;;;;;4.70;2.70;;;20.20;67.30;;;21.52;44.58;100152.22;4994354;28;21150;-66
2022/09/03 00:12:05;;;;;;;2.13;2.03;;;20.30;67.60;;;21.49;44.92;100155.25;4992061;28;20653;-67
2022/09/03 00:15:01;;;;;;;2.17;2.07;;;20.30;68.00;;;21.53;44.85;100153.84;4993571;28;20809;-66
2022/09/03 00:17:38;;;;;;;3.93;1.90;;;20.30;68.20;;;21.50;44.44;100159.56;4992637;28;20953;-67
2022/09/03 00:20:19;;;;;;;3.53;2.13;;;20.30;67.90;;;21.63;44.55;100161.50;4980525;28;20639;-67
2022/09/03 00:22:53;;;;;;;1.60;1.60;;;20.30;68.10;;;21.53;44.46;100163.63;4979781;28;20678;-66
2022/09/03 00:25:58;;;;;;;2.00;1.87;;;20.30;67.70;;;21.50;44.30;100161.38;4973564;28;20645;-67
2022/09/03 00:28:37;;;;;;;5.73;2.40;;;20.30;67.70;;;21.46;44.41;100153.00;4973273;28;20982;-67
2022/09/03 00:31:23;;;;;;;1.90;1.80;;;20.20;67.90;;;21.41;44.78;100162.53;4978365;28;20662;-67
2022/09/03 00:33:55;;;;;;;1.90;1.87;;;20.20;68.00;;;21.43;44.43;100156.03;4998442;28;20634;-67
2022/09/03 00:36:33;;;;;;;3.67;1.90;;;20.20;67.90;;;21.42;44.53;100154.38;4986103;28;21019;-67
2022/09/03 00:39:00;;;;;;;2.33;2.23;;;20.20;68.30;;;21.41;44.79;100152.75;4971528;28;20623;-66
2022/09/03 00:42:24;;;;;;;1.57;1.57;;;20.20;68.30;;;21.28;45.10;100155.28;4976196;28;20682;-66
2022/09/03 00:45:24;;;;;;;2.50;2.30;;;20.10;68.70;;;21.35;45.09;100156.16;4950959;29;21028;-67
2022/09/03 00:48:02;;;;;;;1.90;1.80;;;20.10;69.00;;;21.27;45.09;100156.28;4951979;29;21161;-67
2022/09/03 00:50:48;;;;;;;2.90;2.20;;;20.10;69.10;;;21.25;45.18;100160.94;4974291;28;20635;-66
2022/09/03 00:53:17;;;;;;;1.93;1.83;;;20.10;69.10;;;21.23;45.29;100148.91;4991258;28;20618;-66
2022/09/03 00:55:57;;;;;;;4.43;2.27;;;20.00;69.20;;;21.15;45.35;100154.31;4991525;28;21297;-66
2022/09/03 00:58:28;;;;;;;6.93;2.27;;;20.00;69.40;;;21.13;45.29;100141.25;4991919;28;20626;-66
2022/09/03 01:00:55;;;;;;;2.20;1.87;;;20.00;69.30;;;21.12;45.51;100150.22;4992022;28;20613;-66
2022/09/03 01:04:02;;;;;;;3.30;2.13;;;20.00;69.30;;;21.11;45.30;100142.44;4985814;28;21253;-65
2022/09/03 01:06:54;;;;;;;2.27;2.17;;;19.90;69.40;;;21.04;45.84;100147.69;4970734;28;20611;-67
2022/09/03 01:10:31;;;;;;;4.20;2.13;;;19.90;69.70;;;20.98;45.53;100143.09;4981570;28;21209;-66
2022/09/03 01:13:10;;;;;;;2.07;1.97;;;19.90;69.70;;;20.94;45.86;100151.63;4991237;28;20685;-67
2022/09/03 01:16:22;;;;;;;2.73;1.70;;;19.80;69.90;;;20.97;45.66;100138.81;4990870;28;20749;-66
2022/09/03 01:19:30;;;;;;;2.10;2.00;;;19.80;70.10;;;20.99;45.63;100144.75;4990323;28;20631;-66
2022/09/03 01:22:38;;;;;;;2.10;2.00;;;19.80;70.10;;;20.94;45.45;100146.31;4967823;28;20669;-66
2022/09/03 01:25:14;;;;;;;1.77;1.67;;;19.80;70.20;;;20.97;45.60;100156.56;4968519;28;20671;-67
2022/09/03 01:28:19;;;;;;;3.73;2.20;;;19.70;70.20;;;20.96;45.18;100155.72;4987386;28;20643;-68
2022/09/03 01:31:17;;;;;;;2.13;1.87;;;19.80;70.10;;;20.86;45.63;100155.22;4990675;28;20741;-67
2022/09/03 01:34:25;;;;;;;2.53;2.33;;;19.70;70.30;;;20.98;45.34;100155.53;4983176;28;20626;-66
2022/09/03 01:37:36;;;;;;;2.30;2.20;;;19.70;70.30;;;20.97;45.72;100159.22;4990213;28;20614;-66
2022/09/03 01:40:05;;;;;;;2.40;2.30;;;19.70;70.60;;;21.00;45.89;100162.31;4990174;28;20630;-66
2022/09/03 01:43:04;;;;;;;2.77;2.57;;;19.80;71.10;;;21.00;45.77;100164.16;4991696;28;20754;-66
2022/09/03 01:45:59;;;;;;;2.80;2.60;;;19.70;71.10;;;21.04;45.59;100160.16;4986311;28;22205;-67
2022/09/03 01:48:32;;;;;;;2.60;2.40;;;19.80;70.70;;;20.96;45.44;100165.50;4979393;28;20651;-66
2022/09/03 01:51:24;;;;;;;2.50;2.30;;;19.80;70.50;;;20.98;45.18;100164.31;4971933;28;21313;-67
2022/09/03 01:54:24;;;;;;;2.27;2.07;;;19.80;70.50;;;20.92;45.33;100165.09;4987191;28;20994;-65
2022/09/03 01:57:46;;;;;;;6.00;2.27;;;19.80;70.30;;;20.95;45.48;100151.47;4990281;28;21187;-66
2022/09/03 02:00:21;;;;;;;2.13;1.93;;;19.80;70.70;;;20.99;45.50;100165.97;4977582;28;20631;-66
2022/09/03 02:02:51;;;;;;;2.17;2.07;;;19.80;70.60;;;21.00;45.26;100162.31;4979990;28;20678;-66
2022/09/03 02:05:22;;;;;;;2.60;2.40;;;19.80;70.60;;;20.89;45.73;100160.97;4984626;28;20665;-67
2022/09/03 02:07:55;;;;;;;2.10;2.00;;;19.80;71.00;;;20.88;45.86;100164.66;4990797;28;20966;-68
2022/09/03 02:10:33;;;;;;;3.10;2.00;;;19.70;71.20;;;20.80;45.99;100163.94;4982140;28;21211;-68
2022/09/03 02:13:12;;;;;;;2.20;2.10;;;19.70;71.60;;;20.88;45.97;100169.94;4971427;28;20643;-67
2022/09/03 02:15:47;;;;;;;3.07;2.33;;;19.70;71.70;;;20.76;46.49;100167.97;4986709;28;20645;-66
2022/09/03 02:18:26;;;;;;;2.43;2.30;;;19.60;72.00;;;20.85;46.06;100172.97;4980165;28;20730;-68
2022/09/03 02:20:53;;;;;;;2.43;2.30;;;19.60;72.00;;;20.83;46.26;100167.03;4975522;28;21021;-67
2022/09/03 02:23:21;;;;;;;2.30;2.20;;;19.60;72.10;;;20.92;46.11;100173.03;4971342;28;20728;-65
2022/09/03 02:26:01;;;;;;;5.70;2.10;;;19.70;72.10;;;20.86;46.27;100174.63;4985399;28;20639;-68
2022/09/03 02:28:30;;;;;;;2.60;1.80;;;19.70;72.20;;;20.81;46.45;100169.03;4989459;28;20633;-67
2022/09/03 02:30:57;;;;;;;2.90;2.10;;;19.70;72.50;;;20.84;46.31;100173.16;4983282;28;21035;-66
2022/09/03 02:33:26;;;;;;;2.00;1.90;;;19.60;72.60;;;20.83;46.60;100176.81;4971351;28;20624;-66
2022/09/03 02:35:54;;;;;;;2.63;1.80;;;19.60;72.60;;;20.88;46.60;100174.41;4985550;28;20638;-66
2022/09/03 02:38:25;;;;;;;3.00;2.10;;;19.60;72.80;;;20.77;46.88;100175.72;4990999;28;20625;-66
2022/09/03 02:40:53;;;;;;;1.80;1.70;;;19.60;73.80;;;20.65;47.77;100181.69;4990846;28;20714;-67
2022/09/03 02:43:49;;;;;;;2.20;2.10;;;19.50;74.30;;;20.67;47.52;100171.72;4991008;28;21361;-66
2022/09/03 02:46:28;;;;;;;2.77;2.57;;;19.50;74.50;;;20.72;47.29;100172.00;4990100;28;20638;-67
2022/09/03 02:48:55;;;;;;;2.10;2.00;;;19.40;74.50;;;20.58;47.61;100171.03;4989463;28;20676;-66
2022/09/03 02:51:22;;;;;;;2.27;2.17;;;19.40;74.70;;;20.64;47.43;100164.13;4981077;28;21049;-67
2022/09/03 02:53:50;;;;;;;2.07;2.00;;;19.40;74.60;;;20.77;46.91;100169.59;4970919;28;20623;-66
2022/09/03 02:56:17;;;;;;;1.80;1.70;;;19.50;74.30;;;20.75;47.04;100171.63;4982598;28;20681;-67
2022/09/03 02:58:43;;;;;;;1.97;1.87;;;19.50;74.30;;;20.75;46.95;100166.31;4986507;28;20631;-66
2022/09/03 03:01:10;;;;;;;2.90;2.20;;;19.50;74.20;;;20.78;46.99;100158.00;4974369;28;20643;-66
2022/09/03 03:03:49;;;;;;;1.67;1.57;;;19.50;74.40;;;20.70;47.24;100166.03;4978759;28;20690;-66
2022/09/03 03:06:19;;;;;;;3.13;2.10;;;19.60;74.40;;;20.59;47.85;100155.94;4993293;28;20638;-66
2022/09/03 03:08:47;;;;;;;2.67;2.23;;;19.50;74.80;;;20.47;47.78;100160.06;4992854;28;20610;-68
2022/09/03 03:11:17;;;;;;;2.70;1.90;;;19.40;75.40;;;20.54;48.06;100161.81;4993885;28;20658;-67
2022/09/03 03:13:45;;;;;;;3.33;2.37;;;19.40;75.80;;;20.56;48.36;100161.59;4994787;28;20625;-65
2022/09/03 03:16:15;;;;;;;1.87;1.77;;;19.40;76.20;;;20.34;48.79;100168.66;4993123;28;20649;-66
2022/09/03 03:18:45;;;;;;;2.07;1.87;;;19.30;76.60;;;20.46;48.72;100171.69;4993630;28;20614;-66
2022/09/03 03:21:15;;;;;;;2.13;2.03;;;19.30;77.10;;;20.37;48.96;100160.34;4993223;28;20883;-65
2022/09/03 03:23:42;;;;;;;2.53;2.33;;;19.30;77.40;;;20.43;49.19;100159.63;4984524;28;20681;-66
2022/09/03 03:26:14;;;;;;;2.10;2.00;;;19.20;77.60;;;20.36;49.27;100157.91;4993983;28;20645;-66
2022/09/03 03:28:41;;;;;;;3.27;2.10;;;19.20;78.00;;;20.44;49.09;100155.97;4993607;28;20606;-65
2022/09/03 03:31:14;;;;;;;2.03;1.93;;;19.20;78.40;;;20.47;49.44;100152.09;4993630;28;20709;-67
2022/09/03 03:33:42;;;;;;;2.37;2.27;;;19.30;78.80;;;20.25;50.33;100156.53;4993033;28;20637;-67
2022/09/03 03:36:12;;;;;;;1.87;1.77;;;19.20;79.40;;;20.31;49.85;100160.28;4992237;28;20670;-67
2022/09/03 03:38:42;;;;;;;2.43;2.23;;;19.20;79.70;;;20.30;50.36;100158.63;5008033;28;21179;-69
2022/09/03 03:41:17;;;;;;;2.17;2.07;;;19.10;80.10;;;20.23;50.76;100169.13;4992824;28;20662;-67
2022/09/03 03:43:44;;;;;;;2.67;2.17;;;19.10;80.60;;;20.34;50.56;100165.19;4992602;28;20654;-67
2022/09/03 03:46:12;;;;;;;2.50;2.30;;;19.10;81.10;;;20.27;50.66;100156.34;4992690;28;20641;-67
2022/09/03 03:48:40;;;;;;;2.30;2.20;;;19.10;81.20;;;20.34;50.54;100162.53;4993148;28;20685;-65
2022/09/03 03:51:09;;;;;;;2.10;1.93;;;19.10;81.40;;;20.42;50.57;100163.25;4993100;28;20666;-68
2022/09/03 03:53:37;;;;;;;2.20;2.10;;;19.10;81.70;;;20.40;50.44;100161.81;4991758;28;20610;-67
2022/09/03 03:56:09;;;;;;;2.10;2.00;;;19.20;82.10;;;20.47;50.22;100163.53;4992769;28;21028;-67
2022/09/03 03:58:36;;;;;;;1.70;1.70;;;19.20;82.30;;;20.45;50.54;100168.19;4993192;28;20603;-67
2022/09/03 04:01:13;;;;;;;2.40;2.30;;;19.20;82.50;;;20.37;50.71;100164.81;4992458;28;20668;-66
2022/09/03 04:03:40;;;;;;;10.90;2.30;;;19.20;82.70;;;20.41;50.86;100169.59;4974590;28;20928;-68
2022/09/03 04:06:09;;;;;;;1.47;1.47;;;19.20;83.30;;;20.43;50.83;100166.75;4975227;28;20612;-68
2022/09/03 04:08:39;;;;;;;4.10;2.30;;;19.20;83.50;;;20.46;50.93;100172.50;4984907;28;20989;-68
2022/09/03 04:11:10;;;;;;;1.80;1.80;;;19.20;83.60;;;20.48;51.05;100167.84;4991126;28;20646;-67
2022/09/03 04:13:40;;;;;;;2.43;2.33;;;19.20;84.20;;;20.44;51.06;100163.09;4992888;28;21209;-67
2022/09/03 04:16:20;;;;;;;2.20;2.10;;;19.20;84.60;;;20.45;50.97;100167.38;4990507;28;20642;-67
2022/09/03 04:18:49;;;;;;;2.10;2.00;;;19.20;84.90;;;20.44;51.05;100158.63;4978372;28;20645;-71
2022/09/03 04:21:19;;;;;;;2.33;2.13;;;19.20;85.00;;;20.45;51.39;100162.06;4974380;28;20666;-67
2022/09/03 04:23:49;;;;;;;2.40;2.20;;;19.20;85.50;;;20.48;50.94;100167.00;4973303;28;20672;-68
2022/09/03 04:26:23;;;;;;;1.80;1.70;;;19.20;85.60;;;20.41;51.43;100166.94;4980537;28;20638;-67
2022/09/03 04:28:50;;;;;;;1.93;1.83;;;19.20;85.70;;;20.49;51.34;100173.94;4990446;28;20631;-66
2022/09/03 04:31:20;;;;;;;2.17;2.07;;;19.20;86.10;;;20.52;51.56;100178.88;4990110;28;20658;-66
2022/09/03 04:33:46;;;;;;;2.10;2.00;;;19.20;86.60;;;20.51;51.84;100182.53;4992387;28;20618;-69
2022/09/03 04:36:19;;;;;;;2.37;2.27;;;19.20;87.00;;;20.52;51.94;100185.00;4992156;28;20619;-65
2022/09/03 04:38:50;;;;;;;7.93;2.33;;;19.20;87.40;;;20.46;52.05;100179.63;4993020;28;20633;-65
2022/09/03 04:41:20;;;;;;;2.50;2.23;;;19.20;87.50;;;20.45;51.93;100170.84;4991169;28;20642;-67
2022/09/03 04:43:47;;;;;;;2.60;2.40;;;19.20;87.70;;;20.45;51.84;100184.09;4991880;28;20666;-67
2022/09/03 04:46:19;;;;;;;2.40;2.13;;;19.20;87.90;;;20.53;51.24;100185.84;4985078;28;20640;-67
2022/09/03 04:48:52;;;;;;;2.00;1.90;;;19.20;87.30;;;20.49;51.68;100189.84;4980335;28;20650;-67
2022/09/03 04:51:26;;;;;;;3.77;2.40;;;19.20;87.50;;;20.38;51.90;100190.34;4989749;23;20651;-63
2022/09/03 04:53:56;;;;;;;2.17;2.03;;;19.20;87.50;;;20.45;51.43;100188.56;4991043;28;20990;-65
2022/09/03 04:56:28;;;;;;;2.17;2.07;;;19.30;87.50;;;20.49;50.69;100190.66;4991926;28;20619;-64
2022/09/03 04:58:58;;;;;;;2.30;2.20;;;19.30;86.70;;;20.38;50.83;100198.28;4991592;28;20643;-65
2022/09/03 05:01:30;;;;;;;2.40;2.20;;;19.20;86.40;;;20.42;50.52;100194.25;4988265;28;20656;-65
2022/09/03 05:03:59;;;;;;;2.63;2.40;;;19.20;86.40;;;20.42;50.85;100199.56;4972353;28;20663;-65
2022/09/03 05:06:28;;;;;;;2.90;2.10;;;19.20;86.80;;;20.42;51.66;100204.84;4965760;28;21204;-65
2022/09/03 05:08:55;;;;;;;2.30;2.20;;;19.20;88.10;;;20.32;53.99;100212.25;4972862;28;20616;-64
2022/09/03 05:11:24;;;;;;;4.10;2.43;;;19.20;90.90;;;20.32;55.50;100215.72;4970855;28;20727;-64
2022/09/03 05:13:54;;;;;;;2.77;2.57;;;19.10;92.20;;;20.25;56.99;100212.16;4973369;28;20666;-65
2022/09/03 05:16:23;;;;;;;4.77;2.40;;;19.10;94.10;;;20.12;57.88;100209.28;4971091;28;20632;-65
2022/09/03 05:18:58;;;;;;;4.43;2.70;;;19.00;95.30;;;20.04;58.08;100212.84;4971997;28;20615;-66
2022/09/03 05:21:27;;;;;;;2.87;2.67;;;19.00;96.10;;;20.12;59.00;100219.91;4969691;28;20643;-65
2022/09/03 05:23:54;;;;;;;5.53;3.10;;;18.90;97.10;;;20.04;59.78;100226.06;4965334;28;20752;-65
2022/09/03 05:26:27;;;;;;;2.23;2.13;;;18.80;98.50;;;19.98;60.11;100226.81;4962745;28;21233;-65
2022/09/03 05:28:58;;;;;;;2.30;2.20;;;18.80;99.10;;;19.97;60.82;100227.81;4971268;28;20616;-62
2022/09/03 05:31:28;;;;;;;2.50;2.33;;;18.80;99.90;;;19.84;60.96;100232.06;4971997;28;21053;-65
2022/09/03 05:33:59;;;;;;;6.00;2.83;;;18.70;99.90;;;19.82;60.75;100234.09;4972607;28;20744;-65
2022/09/03 05:36:30;;;;;;;3.33;2.50;;;18.70;99.90;;;19.83;60.52;100241.00;4985341;28;20747;-66
2022/09/03 05:38:58;;;;;;;2.40;2.30;;;18.60;99.90;;;19.87;61.04;100234.34;4971388;28;20635;-65
2022/09/03 05:41:27;;;;;;;2.93;2.83;;;18.60;99.90;;;19.90;61.26;100232.19;4971627;28;20616;-66
2022/09/03 05:43:58;;;;;;;2.60;2.50;;;18.70;99.90;;;20.04;60.90;100231.38;4971978;28;21088;-67
2022/09/03 05:46:30;;;;;;;2.37;2.23;;;18.80;99.90;;;20.09;60.78;100238.78;4972065;28;20603;-66
2022/09/03 05:49:02;;;;;;;2.07;1.97;;;18.80;99.90;;;20.02;60.63;100233.38;4969762;28;20627;-66
2022/09/03 05:51:31;;;;;;;2.83;1.87;;;18.80;99.90;;;20.12;59.82;100233.94;4969119;28;20689;-67
2022/09/03 05:53:58;;;;;;;3.30;2.60;;;18.90;99.90;;;20.23;59.23;100242.50;4963775;28;21196;-66
2022/09/03 05:56:28;;;;;;;3.63;1.97;;;18.90;99.90;;;20.37;58.90;100239.84;4972004;28;20706;-66
2022/09/03 05:59:01;;;;;;;2.20;2.10;;;19.00;99.90;;;20.34;58.33;100244.66;4970934;28;20635;-65
2022/09/03 06:01:48;;;;;;;2.80;2.60;;;19.00;99.90;;;20.50;58.10;100244.50;4971539;28;20682;-66
2022/09/03 06:04:20;;;;;;;2.17;2.00;;;19.10;99.90;;;20.59;57.74;100244.22;4970244;28;20678;-66
2022/09/03 06:06:47;;;;;;;2.40;2.20;;;19.20;99.90;;;20.68;58.17;100248.41;4970585;28;21212;-67
2022/09/03 06:09:20;;;;;;;5.93;2.23;;;19.30;99.90;;;20.67;57.86;100251.25;4971814;28;20646;-66
2022/09/03 06:11:49;;;;;;;4.07;2.20;;;19.30;99.90;;;20.79;58.50;100255.06;4969632;28;20681;-65
2022/09/03 06:14:19;;;;;;;2.33;2.23;;;19.40;99.90;;;20.91;57.09;100244.84;4971340;28;20682;-66
2022/09/03 06:16:48;;;;;;;2.07;1.97;;;19.50;99.90;;;20.94;56.58;100245.28;4970836;28;20634;-66
2022/09/03 06:19:15;;;;;;;1.30;1.30;;;19.50;99.90;;;20.97;56.04;100258.19;4972468;28;20631;-66
2022/09/03 06:21:45;;;;;;;1.63;1.53;;;19.60;99.90;;;20.62;56.27;100243.03;4970600;28;20644;-63
2022/09/03 06:24:25;;;;;;;1.60;1.60;;;19.50;99.50;;;20.57;56.63;100263.97;4971043;28;21257;-66
2022/09/03 06:26:55;;;;;;;1.67;1.57;;;19.40;99.50;;;20.44;57.10;100264.63;4969540;28;21044;-67
2022/09/03 06:29:22;;;;;;;2.70;1.80;;;19.30;99.90;;;20.45;56.76;100270.72;4968470;28;20682;-66
2022/09/03 06:31:50;;;;;;;1.60;1.60;;;19.30;99.80;;;20.46;56.52;100277.69;4963512;28;20645;-67
2022/09/03 06:34:21;;;;;;;4.17;2.30;;;19.20;99.80;;;20.53;57.80;100282.06;4973665;28;20635;-67
2022/09/03 06:36:48;;;;;;;2.10;2.00;;;19.20;99.90;;;20.41;59.04;100272.91;4974542;28;20729;-66
2022/09/03 06:39:15;;;;;;;3.70;2.40;;;19.20;99.90;;;20.32;61.63;100281.94;4974686;28;20623;-64
2022/09/03 06:41:44;;;;;;;3.27;2.13;;;19.10;99.90;;;20.43;62.92;100275.38;4973279;28;20664;-64
2022/09/03 06:44:12;;;;;;;2.60;2.13;;;19.10;99.90;;;20.26;64.34;100271.25;4973674;28;20683;-66
2022/09/03 06:46:42;;;;;;;2.60;2.27;;;19.10;99.90;;;20.30;65.93;100269.88;4974190;28;20705;-66
2022/09/03 06:49:10;;;;;;;2.50;2.30;;;19.10;99.90;;;20.34;66.76;100269.34;4972961;28;20650;-66
2022/09/03 06:51:38;;;;;;;4.07;2.50;;;19.00;99.90;;;20.44;67.08;100269.09;4974333;28;20652;-66
2022/09/03 06:54:10;;;;;;;3.37;2.37;;;19.10;99.90;;;20.50;68.04;100265.72;4974318;28;20719;-66
2022/09/03 06:56:39;;;;;;;3.30;2.23;;;19.20;99.90;;;20.31;69.00;100266.25;4974155;28;20615;-65
2022/09/03 06:59:13;;;;;;;3.13;2.10;;;19.10;99.90;;;20.30;67.76;100268.06;4974289;28;21055;-64
2022/09/03 07:01:42;;;;;;;2.73;2.50;;;19.10;99.90;;;20.26;68.97;100281.84;4965372;28;20956;-65
2022/09/03 07:04:17;;;;;;;4.33;2.50;;;19.00;99.90;;;19.75;69.57;100278.97;4972400;28;20785;-66
2022/09/03 07:06:46;;;;;;;6.60;2.30;;;18.70;99.90;;;19.82;70.03;100277.28;4972413;28;20631;-67
2022/09/03 07:09:14;;;;;;;3.87;2.57;;;18.60;99.90;;;19.64;70.43;100284.69;4974378;28;21229;-66
2022/09/03 07:11:45;;;;;;;2.80;2.60;;;18.50;99.90;;;19.67;70.93;100280.84;4972968;28;20719;-66
2022/09/03 07:14:18;;;;;;;3.03;2.70;;;18.40;99.90;;;19.70;72.82;100278.66;4954950;28;20635;-66
2022/09/03 07:16:48;;;;;;;2.50;2.30;;;18.50;99.90;;;19.81;73.22;100291.50;4966662;28;21109;-66
2022/09/03 07:19:15;;;;;;;3.17;2.87;;;18.50;99.90;;;19.78;73.81;100281.25;4973420;28;20623;-66
2022/09/03 07:21:42;;;;;;;3.10;2.90;;;18.50;99.90;;;19.86;72.98;100289.16;4973443;28;21025;-65
2022/09/03 07:24:15;;;;;;;3.40;3.10;;;18.60;99.90;;;19.86;73.18;100294.44;4973749;28;20659;-65
2022/09/03 07:26:48;;;;;;;3.47;3.17;;;18.70;99.90;;;19.61;74.13;100298.28;4972377;28;20749;-65
2022/09/03 07:29:18;;;;;;;3.20;3.00;;;18.50;99.90;;;19.80;72.87;100304.91;4974205;28;21191;-65
2022/09/03 07:31:49;;;;;;;4.33;3.30;;;18.60;99.90;;;19.91;72.62;100300.00;4973020;28;20657;-65
2022/09/03 07:34:17;;;;;;;3.40;3.10;;;18.60;99.90;;;20.01;72.56;100311.19;4973682;28;20634;-65
2022/09/03 07:36:46;;;;;;;3.07;2.77;;;18.70;99.90;;;20.18;72.42;100311.88;4973576;28;20646;-66
2022/09/03 07:39:19;;;;;;;4.03;3.10;;;18.90;99.90;;;20.20;72.20;100303.75;4957266;28;20627;-66
2022/09/03 07:41:46;;;;;;;4.40;3.07;;;18.90;99.90;;;20.14;71.74;100306.09;4972182;28;20670;-66
2022/09/03 07:44:18;;;;;;;3.03;2.70;;;18.90;99.90;;;20.07;72.35;100299.88;4973717;28;20702;-66
2022/09/03 07:46:46;;;;;;;3.53;3.27;;;18.80;99.90;;;20.14;72.31;100300.78;4969261;28;21011;-65
2022/09/03 07:49:14;;;;;;;4.43;3.33;;;18.90;99.90;;;20.20;73.00;100301.09;4973854;28;20643;-67
2022/09/03 07:51:41;;;;;;;5.40;2.77;;;18.90;99.90;;;20.29;73.46;100294.75;4972538;28;20669;-67
2022/09/03 07:54:09;;;;;;;2.70;2.50;;;19.00;99.90;;;20.09;72.62;100291.75;4973531;28;20992;-66
2022/09/03 07:56:39;;;;;;;4.00;2.57;;;18.90;99.90;;;19.89;72.85;100272.88;4973269;28;20675;-66
2022/09/03 07:59:07;;;;;;;3.93;3.53;;;18.80;99.90;;;19.61;73.98;100263.88;4973343;28;21029;-65
2022/09/03 08:01:35;;;;;;;3.40;3.03;;;18.60;99.90;;;19.67;74.78;100273.75;4972007;28;20659;-65
2022/09/03 08:04:05;;;;;;;3.20;2.97;;;18.50;99.90;;;19.46;76.23;100260.34;4973506;28;20891;-65
2022/09/03 08:06:36;;;;;;;3.13;2.83;;;18.50;99.90;;;19.28;77.86;100265.03;4973580;28;20643;-65
2022/09/03 08:09:07;;;;;;;3.27;3.07;;;18.30;99.90;;;19.29;78.13;100269.34;4973398;28;20620;-64
2022/09/03 08:11:38;;;;;;;2.33;2.23;;;18.20;99.90;;;19.27;77.62;100274.00;4971302;28;20655;-65
2022/09/03 08:14:08;;;;;;;3.33;3.03;;;18.20;99.90;;;19.29;77.40;100285.22;4973041;28;20623;-64
2022/09/03 08:16:41;;;;;;;4.07;2.87;;;18.20;99.90;;;19.26;78.29;100282.91;4963614;28;20643;-66
2022/09/03 08:19:08;;;;;;;5.20;3.80;;;18.20;99.90;;;19.43;78.32;100292.44;4970647;28;20624;-65
2022/09/03 08:21:35;;;;;;;3.40;3.10;;;18.20;99.90;;;19.45;77.39;100294.91;4971902;28;20730;-65
2022/09/03 08:24:03;;;;;;;3.17;2.97;;;18.30;99.90;;;19.48;78.12;100299.84;4973047;28;20738;-66
2022/09/03 08:26:34;;;;;;;3.30;3.00;;;18.40;99.90;;;19.47;77.52;100306.97;4964776;28;20733;-65
2022/09/03 08:29:01;;;;;;;2.87;2.67;;;18.40;99.90;;;19.37;78.05;100298.44;4973044;28;21187;-65
2022/09/03 08:31:29;;;;;;;4.37;2.60;;;18.30;99.90;;;19.49;77.17;100318.19;4968712;28;21048;-65
2022/09/03 08:34:05;;;;;;;3.57;3.30;;;18.30;99.90;;;19.67;76.99;100320.56;4965314;28;21050;-64
2022/09/03 08:36:37;;;;;;;3.03;2.83;;;18.40;99.90;;;19.84;77.33;100330.03;4970863;28;20642;-66
2022/09/03 08:39:08;;;;;;;3.80;3.40;;;18.50;99.90;;;19.87;77.58;100333.13;4965311;28;20643;-65
2022/09/03 08:42:03;;;;;;;3.80;3.50;;;18.70;99.90;;;20.03;77.03;100338.31;4964483;28;20694;-65
2022/09/03 08:44:48;;;;;;;2.80;2.60;;;18.70;99.90;;;20.13;76.26;100338.91;4973183;28;21123;-66
2022/09/03 08:47:33;;;;;;;2.80;2.60;;;18.80;99.90;;;20.06;76.27;100345.91;4987484;28;21207;-65
2022/09/03 08:50:17;;;;;;;2.43;2.27;;;18.80;99.90;;;19.75;77.27;100339.84;4971587;28;20727;-65
2022/09/03 08:53:45;;;;;;;3.00;2.80;;;18.70;99.90;;;20.28;75.77;100351.38;4971565;28;20651;-65
2022/09/03 08:56:24;;;;;;;2.80;2.60;;;18.90;99.90;;;21.18;72.39;100358.22;4950471;28;21033;-66
2022/09/03 08:58:51;;;;;;;5.20;3.40;;;19.30;99.90;;;21.49;70.38;100354.31;4940935;28;20639;-66
2022/09/03 09:01:58;;;;;;;5.07;3.10;;;19.80;99.90;;;22.28;67.78;100355.94;4972471;28;21131;-66
2022/09/03 09:05:38;;;;;;;3.33;3.03;;;20.20;99.90;;;21.88;68.55;100364.59;4971451;28;20659;-66
2022/09/03 09:08:33;;;;;;;3.10;2.80;;;20.40;99.90;;;21.49;69.22;100362.28;4966245;28;21042;-66
2022/09/03 09:11:25;;;;;;;8.20;3.27;;;20.10;99.90;;;21.27;70.63;100355.31;4966083;28;20615;-66
2022/09/03 09:13:59;;;;;;;3.13;2.60;;;20.00;99.90;;;20.99;72.30;100354.28;4972316;28;21202;-65
2022/09/03 09:16:53;;;;;;;3.50;3.20;;;19.70;99.90;;;20.62;74.14;100335.81;4972625;28;20650;-66
2022/09/03 09:20:10;;;;;;;3.40;3.00;;;19.60;99.90;;;20.46;73.79;100336.81;4972389;28;20629;-66
2022/09/03 09:22:46;;;;;;;3.17;2.90;;;19.50;99.90;;;20.32;76.41;100342.06;4972207;28;20690;-66
2022/09/03 09:25:19;;;;;;;3.20;2.90;;;19.30;99.90;;;21.00;74.14;100347.16;4969904;28;20663;-66
2022/09/03 09:28:17;;;;;;;4.50;3.33;;;19.50;99.90;;;22.24;69.74;100345.88;4970802;28;20624;-65
2022/09/03 09:30:47;;;;;;;2.90;2.57;;;20.20;99.90;;;23.02;63.92;100359.75;4971955;28;20638;-66
2022/09/03 09:33:16;;;;;;;4.20;2.80;;;20.90;99.90;;;24.35;60.58;100358.09;4972511;28;20651;-65
2022/09/03 09:35:44;;;;;;;6.13;2.80;;;21.60;99.90;;;28.89;47.63;100365.19;4960865;28;20644;-65
2022/09/03 09:38:12;;;;;;;2.90;2.70;;;23.80;99.90;;;31.42;40.57;100363.88;4959695;28;21071;-67
2022/09/03 09:40:44;;;;;;;3.37;3.10;;;26.20;99.70;;;29.41;44.62;100361.44;4971267;28;20735;-63
2022/09/03 09:43:21;;;;;;;2.83;2.63;;;25.80;98.80;;;27.02;49.49;100356.84;4970877;28;20671;-64
2022/09/03 09:45:52;;;;;;;2.27;2.17;;;25.00;99.20;;;26.24;52.15;100349.56;4969958;28;20666;-64
2022/09/03 09:48:33;;;;;;;3.23;2.93;;;24.40;99.90;;;28.43;47.21;100349.88;4971994;28;20619;-63
2022/09/03 09:51:10;;;;;;;3.10;2.90;;;24.90;99.90;;;32.59;37.51;100363.88;4971230;28;20653;-64
2022/09/03 09:53:41;;;;;;;3.23;3.00;;;27.30;97.40;;;32.28;38.07;100364.72;4969096;28;20643;-64
2022/09/03 09:56:19;;;;;;;3.47;3.13;;;27.90;94.90;;;30.41;41.62;100356.28;4958887;28;20761;-65
2022/09/03 09:58:48;;;;;;;3.10;2.90;;;27.30;95.20;;;28.87;44.79;100362.75;4970718;28;20665;-64
2022/09/03 10:01:24;;;;;;;4.47;2.90;;;26.40;96.10;;;27.93;46.31;100346.75;4970431;28;20630;-68
2022/09/03 10:03:58;;;;;;;3.70;3.13;;;25.90;96.20;;;28.06;46.65;100351.13;4970811;28;20701;-65
2022/09/03 10:09:17;;;;;;;3.90;3.50;;;25.50;96.80;;;29.88;43.38;100356.69;4966097;28;20649;-66
2022/09/03 10:12:23;;;;;;;4.17;3.87;;;26.30;96.60;;;32.83;37.98;100370.50;4962571;28;20635;-66
2022/09/03 10:15:06;;;;;;;3.90;3.60;;;27.70;95.20;;;37.91;29.68;100376.28;4967691;28;20658;-65
2022/09/03 10:17:45;;;;;;;5.13;2.70;;;30.80;91.70;;;39.68;26.72;100370.97;4969613;28;21039;-63
2022/09/03 10:20:26;;;;;;;3.43;3.20;;;32.70;84.40;;;40.08;25.91;100366.50;4968934;28;21004;-64
2022/09/03 10:23:03;;;;;;;8.73;3.50;;;33.50;78.00;;;41.76;24.29;100365.00;4951319;28;20667;-64
2022/09/03 10:25:50;;;;;;;3.57;3.27;;;34.50;73.60;;;41.56;24.23;100360.16;4958379;28;20663;-64
2022/09/03 10:28:22;;;;;;;4.10;2.97;;;35.10;69.40;;;40.56;25.13;100347.47;4970133;28;20726;-65
2022/09/03 10:31:07;;;;;;;3.30;3.10;;;34.90;68.20;;;37.51;29.46;100349.66;4968726;28;21214;-63
2022/09/03 10:34:05;;;;;;;3.40;3.10;;;34.10;68.80;;;33.97;34.83;100338.69;4970857;28;20662;-65
2022/09/03 10:37:14;;;;;;;3.80;3.50;;;31.60;72.40;;;33.03;36.08;100338.19;4968492;28;21215;-65
2022/09/03 10:39:44;;;;;;;5.87;3.50;;;30.70;75.40;;;31.64;38.66;100334.16;4970339;28;20650;-64
2022/09/03 10:42:47;;;;;;;7.80;3.50;;;29.70;78.00;;;30.77;40.96;100334.19;4964577;28;20658;-65
2022/09/03 10:45:27;;;;;;;4.70;4.23;;;28.90;80.90;;;30.74;41.41;100328.47;4968198;28;20675;-65
2022/09/03 10:48:24;;;;;;;5.73;4.17;;;28.70;82.50;;;29.74;43.71;100326.63;4965287;28;20623;-66
2022/09/03 10:51:05;;;;;;;7.07;6.37;;;28.00;85.20;;;29.80;43.30;100322.13;4970636;28;20694;-65
2022/09/03 10:54:13;;;;;;;4.43;4.07;;;27.90;86.00;;;29.61;43.62;100323.38;5017335;23;20701;-69